sensor_id;sensor_type;location;lat;lon;timestamp;P1;durP1;ratioP1;P2;durP2;ratioP2
23634;SDS011;11994;51.038;16.974;2022-09-27T00:01:06;17.35;;;13.50;;
23634;SDS011;11994;51.038;16.974;2022-09-27T00:03:37;16.75;;;13.22;;
23634;SDS011;11994;51.038;16.974;2022-09-27T00:06:05;18.65;;;14.45;;
23634;SDS011;11994;51.038;16.974;2022-09-27T00:08:49;17.92;;;14.38;;
23634;SDS011;11994;51.038;16.974;2022-09-27T00:13:58;17.77;;;13.45;;
23634;SDS011;11994;51.038;16.974;2022-09-27T00:16:26;18.82;;;13.28;;
23634;SDS011;11994;51.038;16.974;2022-09-27T00:19:04;16.67;;;13.08;;
23634;SDS011;11994;51.038;16.974;2022-09-27T00:21:30;15.30;;;12.98;;
23634;SDS011;11994;51.038;16.974;2022-09-27T00:23:56;16.30;;;13.93;;
23634;SDS011;11994;51.038;16.974;2022-09-27T00:26:23;17.95;;;13.18;;
23634;SDS011;11994;51.038;16.974;2022-09-27T00:28:50;14.87;;;12.23;;
23634;SDS011;11994;51.038;16.974;2022-09-27T00:31:18;16.12;;;13.55;;
23634;SDS011;11994;51.038;16.974;2022-09-27T00:33:52;15.95;;;13.13;;
23634;SDS011;11994;51.038;16.974;2022-09-27T00:36:19;14.73;;;13.03;;
23634;SDS011;11994;51.038;16.974;2022-09-27T00:38:48;17.67;;;12.18;;
23634;SDS011;11994;51.038;16.974;2022-09-27T00:41:20;14.90;;;12.03;;
23634;SDS011;11994;51.038;16.974;2022-09-27T00:43:49;15.65;;;12.68;;
23634;SDS011;11994;51.038;16.974;2022-09-27T00:46:27;15.48;;;13.00;;
23634;SDS011;11994;51.038;16.974;2022-09-27T00:48:58;15.25;;;13.60;;
23634;SDS011;11994;51.038;16.974;2022-09-27T00:51:29;16.87;;;13.78;;
23634;SDS011;11994;51.038;16.974;2022-09-27T00:53:58;16.35;;;13.65;;
23634;SDS011;11994;51.038;16.974;2022-09-27T00:56:26;17.02;;;13.18;;
23634;SDS011;11994;51.038;16.974;2022-09-27T00:59:00;14.98;;;12.37;;
23634;SDS011;11994;51.038;16.974;2022-09-27T01:01:35;16.30;;;12.53;;
23634;SDS011;11994;51.038;16.974;2022-09-27T01:04:06;15.13;;;13.53;;
23634;SDS011;11994;51.038;16.974;2022-09-27T01:06:38;19.35;;;14.53;;
23634;SDS011;11994;51.038;16.974;2022-09-27T01:09:05;16.65;;;12.80;;
23634;SDS011;11994;51.038;16.974;2022-09-27T01:17:00;13.85;;;11.78;;
23634;SDS011;11994;51.038;16.974;2022-09-27T01:22:22;15.48;;;12.55;;
23634;SDS011;11994;51.038;16.974;2022-09-27T01:28:11;17.35;;;13.90;;
23634;SDS011;11994;51.038;16.974;2022-09-27T01:30:41;16.02;;;11.93;;
23634;SDS011;11994;51.038;16.974;2022-09-27T01:36:37;16.85;;;11.60;;
23634;SDS011;11994;51.038;16.974;2022-09-27T01:44:50;15.28;;;12.58;;
23634;SDS011;11994;51.038;16.974;2022-09-27T01:47:30;13.22;;;11.75;;
23634;SDS011;11994;51.038;16.974;2022-09-27T01:50:07;15.68;;;11.33;;
23634;SDS011;11994;51.038;16.974;2022-09-27T01:52:37;13.65;;;11.50;;
23634;SDS011;11994;51.038;16.974;2022-09-27T01:55:08;14.28;;;12.78;;
23634;SDS011;11994;51.038;16.974;2022-09-27T01:57:38;14.87;;;13.22;;
23634;SDS011;11994;51.038;16.974;2022-09-27T02:00:08;17.95;;;15.13;;
23634;SDS011;11994;51.038;16.974;2022-09-27T02:02:41;17.42;;;14.53;;
23634;SDS011;11994;51.038;16.974;2022-09-27T02:05:28;16.20;;;12.70;;
23634;SDS011;11994;51.038;16.974;2022-09-27T02:08:02;14.68;;;12.90;;
23634;SDS011;11994;51.038;16.974;2022-09-27T02:10:29;16.23;;;13.78;;
23634;SDS011;11994;51.038;16.974;2022-09-27T02:13:10;17.02;;;15.18;;
23634;SDS011;11994;51.038;16.974;2022-09-27T02:15:36;21.33;;;19.07;;
23634;SDS011;11994;51.038;16.974;2022-09-27T02:18:32;19.40;;;15.03;;
23634;SDS011;11994;51.038;16.974;2022-09-27T02:21:12;17.90;;;15.45;;
23634;SDS011;11994;51.038;16.974;2022-09-27T02:23:41;22.25;;;18.35;;
23634;SDS011;11994;51.038;16.974;2022-09-27T02:27:15;17.00;;;14.13;;
23634;SDS011;11994;51.038;16.974;2022-09-27T02:29:01;15.15;;;13.55;;
23634;SDS011;11994;51.038;16.974;2022-09-27T02:31:37;15.05;;;12.75;;
23634;SDS011;11994;51.038;16.974;2022-09-27T02:34:22;17.98;;;13.60;;
23634;SDS011;11994;51.038;16.974;2022-09-27T02:36:46;17.27;;;14.25;;
23634;SDS011;11994;51.038;16.974;2022-09-27T02:39:12;21.33;;;14.18;;
23634;SDS011;11994;51.038;16.974;2022-09-27T02:41:39;18.80;;;13.45;;
23634;SDS011;11994;51.038;16.974;2022-09-27T02:44:06;16.57;;;13.98;;
23634;SDS011;11994;51.038;16.974;2022-09-27T02:46:57;15.45;;;12.53;;
23634;SDS011;11994;51.038;16.974;2022-09-27T02:52:27;15.80;;;11.65;;
23634;SDS011;11994;51.038;16.974;2022-09-27T03:00:51;15.23;;;13.25;;
23634;SDS011;11994;51.038;16.974;2022-09-27T03:06:15;15.55;;;11.80;;
23634;SDS011;11994;51.038;16.974;2022-09-27T03:08:44;17.48;;;13.40;;
23634;SDS011;11994;51.038;16.974;2022-09-27T03:11:10;14.55;;;12.43;;
23634;SDS011;11994;51.038;16.974;2022-09-27T03:13:36;18.02;;;14.50;;
23634;SDS011;11994;51.038;16.974;2022-09-27T03:16:03;21.35;;;14.20;;
23634;SDS011;11994;51.038;16.974;2022-09-27T03:18:31;15.45;;;12.75;;
23634;SDS011;11994;51.038;16.974;2022-09-27T03:20:58;15.15;;;11.88;;
23634;SDS011;11994;51.038;16.974;2022-09-27T03:23:24;15.03;;;11.88;;
23634;SDS011;11994;51.038;16.974;2022-09-27T03:25:50;15.72;;;13.18;;
23634;SDS011;11994;51.038;16.974;2022-09-27T03:28:17;17.92;;;13.00;;
23634;SDS011;11994;51.038;16.974;2022-09-27T03:30:43;17.32;;;14.30;;
23634;SDS011;11994;51.038;16.974;2022-09-27T03:33:11;18.42;;;13.75;;
23634;SDS011;11994;51.038;16.974;2022-09-27T03:35:37;18.35;;;12.58;;
23634;SDS011;11994;51.038;16.974;2022-09-27T03:38:03;16.50;;;13.45;;
23634;SDS011;11994;51.038;16.974;2022-09-27T03:40:31;16.10;;;13.70;;
23634;SDS011;11994;51.038;16.974;2022-09-27T03:42:57;16.07;;;13.85;;
23634;SDS011;11994;51.038;16.974;2022-09-27T03:45:23;15.72;;;13.95;;
23634;SDS011;11994;51.038;16.974;2022-09-27T03:47:49;15.98;;;12.43;;
23634;SDS011;11994;51.038;16.974;2022-09-27T03:50:15;13.75;;;12.15;;
23634;SDS011;11994;51.038;16.974;2022-09-27T03:52:42;14.45;;;12.13;;
23634;SDS011;11994;51.038;16.974;2022-09-27T03:55:09;15.65;;;12.37;;
23634;SDS011;11994;51.038;16.974;2022-09-27T03:57:36;18.35;;;13.38;;
23634;SDS011;11994;51.038;16.974;2022-09-27T04:00:03;18.92;;;13.13;;
23634;SDS011;11994;51.038;16.974;2022-09-27T04:02:31;16.25;;;12.85;;
23634;SDS011;11994;51.038;16.974;2022-09-27T04:04:57;16.52;;;12.00;;
23634;SDS011;11994;51.038;16.974;2022-09-27T04:07:23;13.00;;;11.60;;
23634;SDS011;11994;51.038;16.974;2022-09-27T04:09:48;17.70;;;12.07;;
23634;SDS011;11994;51.038;16.974;2022-09-27T04:12:14;13.60;;;12.18;;
23634;SDS011;11994;51.038;16.974;2022-09-27T04:14:40;15.38;;;12.73;;
23634;SDS011;11994;51.038;16.974;2022-09-27T04:17:06;14.73;;;11.55;;
23634;SDS011;11994;51.038;16.974;2022-09-27T04:19:32;13.58;;;10.95;;
23634;SDS011;11994;51.038;16.974;2022-09-27T04:21:58;14.38;;;11.78;;
23634;SDS011;11994;51.038;16.974;2022-09-27T04:24:24;13.70;;;11.88;;
23634;SDS011;11994;51.038;16.974;2022-09-27T04:26:50;15.45;;;12.53;;
23634;SDS011;11994;51.038;16.974;2022-09-27T04:29:16;17.05;;;12.63;;
23634;SDS011;11994;51.038;16.974;2022-09-27T04:31:42;15.43;;;11.93;;
23634;SDS011;11994;51.038;16.974;2022-09-27T04:34:08;15.03;;;11.70;;
23634;SDS011;11994;51.038;16.974;2022-09-27T04:36:35;14.75;;;11.45;;
23634;SDS011;11994;51.038;16.974;2022-09-27T04:39:02;12.73;;;11.35;;
23634;SDS011;11994;51.038;16.974;2022-09-27T04:41:31;15.40;;;12.30;;
23634;SDS011;11994;51.038;16.974;2022-09-27T04:43:59;14.70;;;12.65;;
23634;SDS011;11994;51.038;16.974;2022-09-27T04:46:26;14.15;;;11.93;;
23634;SDS011;11994;51.038;16.974;2022-09-27T04:48:56;14.35;;;10.93;;
23634;SDS011;11994;51.038;16.974;2022-09-27T04:51:24;13.70;;;11.38;;
23634;SDS011;11994;51.038;16.974;2022-09-27T04:53:51;16.05;;;12.95;;
23634;SDS011;11994;51.038;16.974;2022-09-27T04:56:17;19.62;;;13.83;;
23634;SDS011;11994;51.038;16.974;2022-09-27T04:58:43;18.65;;;13.08;;
23634;SDS011;11994;51.038;16.974;2022-09-27T05:01:09;14.85;;;12.13;;
23634;SDS011;11994;51.038;16.974;2022-09-27T05:03:35;15.65;;;11.38;;
23634;SDS011;11994;51.038;16.974;2022-09-27T05:06:01;16.30;;;11.68;;
23634;SDS011;11994;51.038;16.974;2022-09-27T05:08:28;14.85;;;11.68;;
23634;SDS011;11994;51.038;16.974;2022-09-27T05:10:54;14.50;;;11.20;;
23634;SDS011;11994;51.038;16.974;2022-09-27T05:13:20;13.72;;;10.82;;
23634;SDS011;11994;51.038;16.974;2022-09-27T05:15:46;11.40;;;10.15;;
23634;SDS011;11994;51.038;16.974;2022-09-27T05:18:12;14.07;;;11.43;;
23634;SDS011;11994;51.038;16.974;2022-09-27T05:20:38;14.38;;;12.10;;
23634;SDS011;11994;51.038;16.974;2022-09-27T05:23:04;14.35;;;10.70;;
23634;SDS011;11994;51.038;16.974;2022-09-27T05:25:31;15.32;;;10.65;;
23634;SDS011;11994;51.038;16.974;2022-09-27T05:27:57;12.93;;;10.48;;
23634;SDS011;11994;51.038;16.974;2022-09-27T05:30:28;17.15;;;10.95;;
23634;SDS011;11994;51.038;16.974;2022-09-27T05:32:52;14.38;;;11.30;;
23634;SDS011;11994;51.038;16.974;2022-09-27T05:35:18;15.50;;;10.00;;
23634;SDS011;11994;51.038;16.974;2022-09-27T05:37:55;14.95;;;10.28;;
23634;SDS011;11994;51.038;16.974;2022-09-27T05:40:20;12.18;;;9.33;;
23634;SDS011;11994;51.038;16.974;2022-09-27T05:42:47;12.03;;;9.90;;
23634;SDS011;11994;51.038;16.974;2022-09-27T05:45:14;12.53;;;10.40;;
23634;SDS011;11994;51.038;16.974;2022-09-27T05:47:41;14.07;;;10.30;;
23634;SDS011;11994;51.038;16.974;2022-09-27T05:50:07;11.95;;;10.15;;
23634;SDS011;11994;51.038;16.974;2022-09-27T05:52:33;11.57;;;9.13;;
23634;SDS011;11994;51.038;16.974;2022-09-27T05:55:00;10.50;;;9.10;;
23634;SDS011;11994;51.038;16.974;2022-09-27T05:57:25;12.25;;;9.48;;
23634;SDS011;11994;51.038;16.974;2022-09-27T05:59:51;12.80;;;10.07;;
23634;SDS011;11994;51.038;16.974;2022-09-27T06:02:17;12.93;;;10.28;;
23634;SDS011;11994;51.038;16.974;2022-09-27T06:04:43;16.10;;;10.35;;
23634;SDS011;11994;51.038;16.974;2022-09-27T06:07:09;11.75;;;9.65;;
23634;SDS011;11994;51.038;16.974;2022-09-27T06:09:35;11.15;;;9.48;;
23634;SDS011;11994;51.038;16.974;2022-09-27T06:12:01;12.37;;;8.80;;
23634;SDS011;11994;51.038;16.974;2022-09-27T06:14:27;13.38;;;9.30;;
23634;SDS011;11994;51.038;16.974;2022-09-27T06:16:53;10.65;;;9.05;;
23634;SDS011;11994;51.038;16.974;2022-09-27T06:19:19;10.82;;;9.58;;
23634;SDS011;11994;51.038;16.974;2022-09-27T06:21:48;12.10;;;8.58;;
23634;SDS011;11994;51.038;16.974;2022-09-27T06:24:15;11.60;;;8.70;;
23634;SDS011;11994;51.038;16.974;2022-09-27T06:26:41;14.38;;;9.85;;
23634;SDS011;11994;51.038;16.974;2022-09-27T06:29:07;13.30;;;9.13;;
23634;SDS011;11994;51.038;16.974;2022-09-27T06:31:33;13.10;;;9.68;;
23634;SDS011;11994;51.038;16.974;2022-09-27T06:33:59;16.12;;;10.28;;
23634;SDS011;11994;51.038;16.974;2022-09-27T06:36:25;11.65;;;9.38;;
23634;SDS011;11994;51.038;16.974;2022-09-27T06:38:50;10.43;;;8.13;;
23634;SDS011;11994;51.038;16.974;2022-09-27T06:41:16;9.55;;;7.80;;
23634;SDS011;11994;51.038;16.974;2022-09-27T06:43:42;11.08;;;8.50;;
23634;SDS011;11994;51.038;16.974;2022-09-27T06:46:09;10.82;;;9.00;;
23634;SDS011;11994;51.038;16.974;2022-09-27T06:48:35;11.33;;;9.55;;
23634;SDS011;11994;51.038;16.974;2022-09-27T06:51:02;11.45;;;8.40;;
23634;SDS011;11994;51.038;16.974;2022-09-27T06:53:29;9.53;;;8.30;;
23634;SDS011;11994;51.038;16.974;2022-09-27T06:55:56;9.58;;;8.53;;
23634;SDS011;11994;51.038;16.974;2022-09-27T06:58:25;10.85;;;9.05;;
23634;SDS011;11994;51.038;16.974;2022-09-27T07:01:10;10.72;;;9.48;;
23634;SDS011;11994;51.038;16.974;2022-09-27T07:03:36;12.28;;;9.15;;
23634;SDS011;11994;51.038;16.974;2022-09-27T07:06:04;11.12;;;8.80;;
23634;SDS011;11994;51.038;16.974;2022-09-27T07:08:32;12.45;;;8.88;;
23634;SDS011;11994;51.038;16.974;2022-09-27T07:11:01;11.55;;;9.70;;
23634;SDS011;11994;51.038;16.974;2022-09-27T07:13:29;11.13;;;9.23;;
23634;SDS011;11994;51.038;16.974;2022-09-27T07:15:56;12.25;;;9.88;;
23634;SDS011;11994;51.038;16.974;2022-09-27T07:18:23;13.48;;;9.75;;
23634;SDS011;11994;51.038;16.974;2022-09-27T07:20:49;12.75;;;9.45;;
23634;SDS011;11994;51.038;16.974;2022-09-27T07:23:15;13.38;;;9.70;;
23634;SDS011;11994;51.038;16.974;2022-09-27T07:25:42;12.90;;;10.03;;
23634;SDS011;11994;51.038;16.974;2022-09-27T07:28:09;11.03;;;9.85;;
23634;SDS011;11994;51.038;16.974;2022-09-27T07:30:40;11.15;;;9.60;;
23634;SDS011;11994;51.038;16.974;2022-09-27T07:33:06;11.80;;;8.73;;
23634;SDS011;11994;51.038;16.974;2022-09-27T07:35:33;12.03;;;9.03;;
23634;SDS011;11994;51.038;16.974;2022-09-27T07:38:04;13.10;;;9.73;;
23634;SDS011;11994;51.038;16.974;2022-09-27T07:40:33;13.25;;;10.35;;
23634;SDS011;11994;51.038;16.974;2022-09-27T07:43:01;10.55;;;9.40;;
23634;SDS011;11994;51.038;16.974;2022-09-27T07:45:28;11.43;;;8.78;;
23634;SDS011;11994;51.038;16.974;2022-09-27T07:47:54;14.30;;;9.65;;
23634;SDS011;11994;51.038;16.974;2022-09-27T07:50:20;11.28;;;9.70;;
23634;SDS011;11994;51.038;16.974;2022-09-27T07:52:46;12.98;;;10.55;;
23634;SDS011;11994;51.038;16.974;2022-09-27T07:55:15;11.12;;;9.65;;
23634;SDS011;11994;51.038;16.974;2022-09-27T07:57:42;12.43;;;8.88;;
23634;SDS011;11994;51.038;16.974;2022-09-27T08:00:11;12.15;;;9.03;;
23634;SDS011;11994;51.038;16.974;2022-09-27T08:02:40;11.80;;;9.35;;
23634;SDS011;11994;51.038;16.974;2022-09-27T08:05:07;13.90;;;10.00;;
23634;SDS011;11994;51.038;16.974;2022-09-27T08:07:34;11.73;;;10.48;;
23634;SDS011;11994;51.038;16.974;2022-09-27T08:10:03;13.20;;;10.13;;
23634;SDS011;11994;51.038;16.974;2022-09-27T08:12:31;11.73;;;9.00;;
23634;SDS011;11994;51.038;16.974;2022-09-27T08:14:57;11.97;;;9.83;;
23634;SDS011;11994;51.038;16.974;2022-09-27T08:17:25;12.18;;;9.58;;
23634;SDS011;11994;51.038;16.974;2022-09-27T08:19:53;11.85;;;10.10;;
23634;SDS011;11994;51.038;16.974;2022-09-27T08:22:19;11.25;;;9.63;;
23634;SDS011;11994;51.038;16.974;2022-09-27T08:24:45;11.75;;;9.05;;
23634;SDS011;11994;51.038;16.974;2022-09-27T08:27:12;11.10;;;9.28;;
23634;SDS011;11994;51.038;16.974;2022-09-27T08:29:39;10.85;;;9.18;;
23634;SDS011;11994;51.038;16.974;2022-09-27T08:32:06;10.78;;;9.68;;
23634;SDS011;11994;51.038;16.974;2022-09-27T08:34:33;13.15;;;9.63;;
23634;SDS011;11994;51.038;16.974;2022-09-27T08:36:59;11.10;;;9.08;;
23634;SDS011;11994;51.038;16.974;2022-09-27T08:39:25;10.78;;;9.35;;
23634;SDS011;11994;51.038;16.974;2022-09-27T08:47:43;11.15;;;8.98;;
23634;SDS011;11994;51.038;16.974;2022-09-27T08:52:56;11.45;;;9.20;;
23634;SDS011;11994;51.038;16.974;2022-09-27T08:55:27;12.43;;;9.88;;
23634;SDS011;11994;51.038;16.974;2022-09-27T09:00:59;13.08;;;10.38;;
23634;SDS011;11994;51.038;16.974;2022-09-27T09:03:29;10.30;;;9.00;;
23634;SDS011;11994;51.038;16.974;2022-09-27T09:11:36;10.85;;;9.43;;
23634;SDS011;11994;51.038;16.974;2022-09-27T09:17:47;12.15;;;8.95;;
23634;SDS011;11994;51.038;16.974;2022-09-27T09:20:54;11.85;;;9.13;;
23634;SDS011;11994;51.038;16.974;2022-09-27T09:34:42;11.08;;;9.50;;
23634;SDS011;11994;51.038;16.974;2022-09-27T09:37:16;11.35;;;9.50;;
23634;SDS011;11994;51.038;16.974;2022-09-27T09:40:03;14.85;;;10.95;;
23634;SDS011;11994;51.038;16.974;2022-09-27T09:42:40;12.20;;;10.28;;
23634;SDS011;11994;51.038;16.974;2022-09-27T09:45:17;13.45;;;9.70;;
23634;SDS011;11994;51.038;16.974;2022-09-27T09:47:56;13.20;;;9.60;;
23634;SDS011;11994;51.038;16.974;2022-09-27T09:50:47;11.48;;;8.88;;
23634;SDS011;11994;51.038;16.974;2022-09-27T09:53:20;11.28;;;9.60;;
23634;SDS011;11994;51.038;16.974;2022-09-27T09:55:58;11.50;;;9.15;;
23634;SDS011;11994;51.038;16.974;2022-09-27T09:58:35;12.00;;;9.40;;
23634;SDS011;11994;51.038;16.974;2022-09-27T10:01:16;10.18;;;7.90;;
23634;SDS011;11994;51.038;16.974;2022-09-27T10:03:47;12.40;;;8.33;;
23634;SDS011;11994;51.038;16.974;2022-09-27T10:06:13;13.20;;;9.90;;
23634;SDS011;11994;51.038;16.974;2022-09-27T10:08:41;11.03;;;9.85;;
23634;SDS011;11994;51.038;16.974;2022-09-27T10:11:11;14.10;;;10.65;;
23634;SDS011;11994;51.038;16.974;2022-09-27T10:13:41;10.55;;;9.33;;
23634;SDS011;11994;51.038;16.974;2022-09-27T10:16:08;10.55;;;9.20;;
23634;SDS011;11994;51.038;16.974;2022-09-27T10:18:38;12.98;;;10.30;;
23634;SDS011;11994;51.038;16.974;2022-09-27T10:26:41;14.43;;;10.43;;
23634;SDS011;11994;51.038;16.974;2022-09-27T10:31:57;11.45;;;8.35;;
23634;SDS011;11994;51.038;16.974;2022-09-27T10:34:38;16.17;;;11.97;;
23634;SDS011;11994;51.038;16.974;2022-09-27T10:37:20;15.60;;;11.00;;
23634;SDS011;11994;51.038;16.974;2022-09-27T10:39:48;10.98;;;8.75;;
23634;SDS011;11994;51.038;16.974;2022-09-27T10:42:30;12.23;;;9.38;;
23634;SDS011;11994;51.038;16.974;2022-09-27T10:47:55;13.30;;;9.70;;
23634;SDS011;11994;51.038;16.974;2022-09-27T10:50:29;10.55;;;8.75;;
23634;SDS011;11994;51.038;16.974;2022-09-27T10:53:03;11.78;;;9.58;;
23634;SDS011;11994;51.038;16.974;2022-09-27T10:55:39;11.38;;;8.58;;
23634;SDS011;11994;51.038;16.974;2022-09-27T10:58:13;11.65;;;9.70;;
23634;SDS011;11994;51.038;16.974;2022-09-27T11:00:43;16.05;;;12.05;;
23634;SDS011;11994;51.038;16.974;2022-09-27T11:03:19;16.42;;;10.43;;
23634;SDS011;11994;51.038;16.974;2022-09-27T11:05:45;14.68;;;11.60;;
23634;SDS011;11994;51.038;16.974;2022-09-27T11:16:46;13.20;;;10.75;;
23634;SDS011;11994;51.038;16.974;2022-09-27T11:30:10;11.97;;;8.55;;
23634;SDS011;11994;51.038;16.974;2022-09-27T11:41:53;9.60;;;8.05;;
23634;SDS011;11994;51.038;16.974;2022-09-27T11:47:44;8.55;;;7.58;;
23634;SDS011;11994;51.038;16.974;2022-09-27T11:50:25;8.53;;;7.65;;
23634;SDS011;11994;51.038;16.974;2022-09-27T11:53:24;9.78;;;8.50;;
23634;SDS011;11994;51.038;16.974;2022-09-27T12:10:41;7.70;;;6.12;;
23634;SDS011;11994;51.038;16.974;2022-09-27T12:13:12;8.15;;;6.25;;
23634;SDS011;11994;51.038;16.974;2022-09-27T12:20:51;7.15;;;5.75;;
23634;SDS011;11994;51.038;16.974;2022-09-27T12:33:41;8.23;;;4.97;;
23634;SDS011;11994;51.038;16.974;2022-09-27T12:36:13;5.78;;;4.55;;
23634;SDS011;11994;51.038;16.974;2022-09-27T12:38:55;7.33;;;5.22;;
23634;SDS011;11994;51.038;16.974;2022-09-27T12:41:30;6.15;;;5.08;;
23634;SDS011;11994;51.038;16.974;2022-09-27T12:44:00;6.80;;;4.83;;
23634;SDS011;11994;51.038;16.974;2022-09-27T12:49:28;6.83;;;4.80;;
23634;SDS011;11994;51.038;16.974;2022-09-27T12:52:09;6.10;;;4.90;;
23634;SDS011;11994;51.038;16.974;2022-09-27T13:09:26;7.35;;;5.60;;
23634;SDS011;11994;51.038;16.974;2022-09-27T13:12:17;6.90;;;5.83;;
23634;SDS011;11994;51.038;16.974;2022-09-27T13:31:01;9.05;;;6.05;;
23634;SDS011;11994;51.038;16.974;2022-09-27T13:36:19;7.35;;;6.22;;
23634;SDS011;11994;51.038;16.974;2022-09-27T13:47:46;7.65;;;6.65;;
23634;SDS011;11994;51.038;16.974;2022-09-27T13:49:48;9.20;;;6.28;;
23634;SDS011;11994;51.038;16.974;2022-09-27T13:55:01;10.88;;;6.47;;
23634;SDS011;11994;51.038;16.974;2022-09-27T14:00:23;8.15;;;6.92;;
23634;SDS011;11994;51.038;16.974;2022-09-27T14:05:49;8.53;;;6.60;;
23634;SDS011;11994;51.038;16.974;2022-09-27T14:08:33;8.43;;;6.65;;
23634;SDS011;11994;51.038;16.974;2022-09-27T14:11:31;10.28;;;7.28;;
23634;SDS011;11994;51.038;16.974;2022-09-27T14:14:02;10.80;;;7.75;;
23634;SDS011;11994;51.038;16.974;2022-09-27T14:16:32;9.35;;;6.37;;
23634;SDS011;11994;51.038;16.974;2022-09-27T14:19:00;8.55;;;5.90;;
23634;SDS011;11994;51.038;16.974;2022-09-27T14:21:29;7.85;;;5.80;;
23634;SDS011;11994;51.038;16.974;2022-09-27T14:26:48;6.62;;;5.37;;
23634;SDS011;11994;51.038;16.974;2022-09-27T14:29:19;6.67;;;5.45;;
23634;SDS011;11994;51.038;16.974;2022-09-27T14:32:00;9.48;;;5.67;;
23634;SDS011;11994;51.038;16.974;2022-09-27T14:34:20;7.58;;;5.53;;
23634;SDS011;11994;51.038;16.974;2022-09-27T14:36:47;8.35;;;5.10;;
23634;SDS011;11994;51.038;16.974;2022-09-27T14:39:32;6.28;;;4.65;;
23634;SDS011;11994;51.038;16.974;2022-09-27T14:42:01;6.90;;;4.53;;
23634;SDS011;11994;51.038;16.974;2022-09-27T14:44:30;6.72;;;5.35;;
23634;SDS011;11994;51.038;16.974;2022-09-27T14:47:15;4.62;;;3.50;;
23634;SDS011;11994;51.038;16.974;2022-09-27T14:49:50;4.87;;;2.55;;
23634;SDS011;11994;51.038;16.974;2022-09-27T14:52:22;3.72;;;2.30;;
23634;SDS011;11994;51.038;16.974;2022-09-27T14:57:37;3.42;;;2.45;;
23634;SDS011;11994;51.038;16.974;2022-09-27T15:02:56;9.10;;;4.40;;
23634;SDS011;11994;51.038;16.974;2022-09-27T15:05:28;4.97;;;3.05;;
23634;SDS011;11994;51.038;16.974;2022-09-27T15:07:57;6.58;;;3.30;;
23634;SDS011;11994;51.038;16.974;2022-09-27T15:10:30;4.75;;;3.12;;
23634;SDS011;11994;51.038;16.974;2022-09-27T15:12:59;5.95;;;4.00;;
23634;SDS011;11994;51.038;16.974;2022-09-27T15:15:34;7.03;;;4.95;;
23634;SDS011;11994;51.038;16.974;2022-09-27T15:17:59;6.78;;;4.22;;
23634;SDS011;11994;51.038;16.974;2022-09-27T15:20:31;8.45;;;3.90;;
23634;SDS011;11994;51.038;16.974;2022-09-27T15:23:00;6.45;;;4.12;;
23634;SDS011;11994;51.038;16.974;2022-09-27T15:28:12;7.20;;;3.65;;
23634;SDS011;11994;51.038;16.974;2022-09-27T15:30:42;6.10;;;3.12;;
23634;SDS011;11994;51.038;16.974;2022-09-27T15:33:27;4.20;;;2.67;;
23634;SDS011;11994;51.038;16.974;2022-09-27T15:36:00;3.47;;;2.50;;
23634;SDS011;11994;51.038;16.974;2022-09-27T15:43:37;7.70;;;3.30;;
23634;SDS011;11994;51.038;16.974;2022-09-27T15:51:54;15.30;;;7.85;;
23634;SDS011;11994;51.038;16.974;2022-09-27T15:54:24;11.48;;;7.28;;
23634;SDS011;11994;51.038;16.974;2022-09-27T15:56:54;11.30;;;7.40;;
23634;SDS011;11994;51.038;16.974;2022-09-27T15:59:29;12.55;;;8.28;;
23634;SDS011;11994;51.038;16.974;2022-09-27T16:01:54;12.28;;;8.13;;
23634;SDS011;11994;51.038;16.974;2022-09-27T16:04:23;13.78;;;7.95;;
23634;SDS011;11994;51.038;16.974;2022-09-27T16:06:50;11.45;;;7.60;;
23634;SDS011;11994;51.038;16.974;2022-09-27T16:09:18;10.82;;;7.35;;
23634;SDS011;11994;51.038;16.974;2022-09-27T16:11:46;12.33;;;6.87;;
23634;SDS011;11994;51.038;16.974;2022-09-27T16:14:14;8.30;;;5.40;;
23634;SDS011;11994;51.038;16.974;2022-09-27T16:16:48;7.75;;;5.50;;
23634;SDS011;11994;51.038;16.974;2022-09-27T16:19:13;10.00;;;5.92;;
23634;SDS011;11994;51.038;16.974;2022-09-27T16:21:39;3.08;;;1.50;;
23634;SDS011;11994;51.038;16.974;2022-09-27T16:24:07;4.92;;;1.67;;
23634;SDS011;11994;51.038;16.974;2022-09-27T16:26:34;4.90;;;1.90;;
23634;SDS011;11994;51.038;16.974;2022-09-27T16:29:01;3.27;;;1.57;;
23634;SDS011;11994;51.038;16.974;2022-09-27T16:31:27;5.03;;;2.10;;
23634;SDS011;11994;51.038;16.974;2022-09-27T16:33:53;3.00;;;1.20;;
23634;SDS011;11994;51.038;16.974;2022-09-27T16:36:19;3.62;;;0.90;;
23634;SDS011;11994;51.038;16.974;2022-09-27T16:38:53;2.95;;;0.62;;
23634;SDS011;11994;51.038;16.974;2022-09-27T16:41:17;2.15;;;0.70;;
23634;SDS011;11994;51.038;16.974;2022-09-27T16:43:45;4.97;;;0.95;;
23634;SDS011;11994;51.038;16.974;2022-09-27T16:46:12;2.95;;;1.27;;
23634;SDS011;11994;51.038;16.974;2022-09-27T16:48:40;6.45;;;2.50;;
23634;SDS011;11994;51.038;16.974;2022-09-27T16:51:09;2.40;;;1.20;;
23634;SDS011;11994;51.038;16.974;2022-09-27T16:53:44;2.42;;;1.20;;
23634;SDS011;11994;51.038;16.974;2022-09-27T16:56:09;2.85;;;1.00;;
23634;SDS011;11994;51.038;16.974;2022-09-27T16:58:35;3.10;;;1.25;;
23634;SDS011;11994;51.038;16.974;2022-09-27T17:01:01;2.40;;;1.20;;
23634;SDS011;11994;51.038;16.974;2022-09-27T17:03:27;3.05;;;1.10;;
23634;SDS011;11994;51.038;16.974;2022-09-27T17:05:53;2.15;;;1.05;;
23634;SDS011;11994;51.038;16.974;2022-09-27T17:08:18;2.70;;;1.30;;
23634;SDS011;11994;51.038;16.974;2022-09-27T17:10:44;2.27;;;1.40;;
23634;SDS011;11994;51.038;16.974;2022-09-27T17:13:10;3.15;;;1.30;;
23634;SDS011;11994;51.038;16.974;2022-09-27T17:15:36;3.10;;;1.40;;
23634;SDS011;11994;51.038;16.974;2022-09-27T17:18:03;4.00;;;1.35;;
23634;SDS011;11994;51.038;16.974;2022-09-27T17:20:29;5.33;;;1.95;;
23634;SDS011;11994;51.038;16.974;2022-09-27T17:22:55;4.42;;;2.60;;
23634;SDS011;11994;51.038;16.974;2022-09-27T17:25:21;5.20;;;2.42;;
23634;SDS011;11994;51.038;16.974;2022-09-27T17:27:47;5.47;;;2.02;;
23634;SDS011;11994;51.038;16.974;2022-09-27T17:30:12;4.20;;;1.80;;
23634;SDS011;11994;51.038;16.974;2022-09-27T17:32:38;8.00;;;3.50;;
23634;SDS011;11994;51.038;16.974;2022-09-27T17:35:04;11.63;;;3.90;;
23634;SDS011;11994;51.038;16.974;2022-09-27T17:37:33;7.28;;;4.00;;
23634;SDS011;11994;51.038;16.974;2022-09-27T17:39:59;9.53;;;5.17;;
23634;SDS011;11994;51.038;16.974;2022-09-27T17:42:25;13.50;;;7.03;;
23634;SDS011;11994;51.038;16.974;2022-09-27T17:44:52;21.35;;;13.25;;
23634;SDS011;11994;51.038;16.974;2022-09-27T17:47:18;29.10;;;17.60;;
23634;SDS011;11994;51.038;16.974;2022-09-27T17:50:03;74.87;;;60.33;;
23634;SDS011;11994;51.038;16.974;2022-09-27T17:52:48;68.02;;;54.45;;
23634;SDS011;11994;51.038;16.974;2022-09-27T17:55:14;52.60;;;38.05;;
23634;SDS011;11994;51.038;16.974;2022-09-27T17:57:40;32.67;;;24.30;;
23634;SDS011;11994;51.038;16.974;2022-09-27T18:00:06;49.45;;;38.90;;
23634;SDS011;11994;51.038;16.974;2022-09-27T18:02:33;34.92;;;30.02;;
23634;SDS011;11994;51.038;16.974;2022-09-27T18:04:59;22.85;;;16.27;;
23634;SDS011;11994;51.038;16.974;2022-09-27T18:07:26;15.53;;;11.15;;
23634;SDS011;11994;51.038;16.974;2022-09-27T18:09:53;12.35;;;9.03;;